sensor_id;sensor_type;location;lat;lon;timestamp;temperature;humidity
43338;DHT22;28933;52.492;13.434;2023-10-09T00:01:07;13.50;93.10
43338;DHT22;28933;52.492;13.434;2023-10-09T00:03:59;13.50;93.20
43338;DHT22;28933;52.492;13.434;2023-10-09T00:06:47;13.40;93.30
43338;DHT22;28933;52.492;13.434;2023-10-09T00:09:36;13.40;93.50
43338;DHT22;28933;52.492;13.434;2023-10-09T00:12:32;13.40;93.70
43338;DHT22;28933;52.492;13.434;2023-10-09T00:15:18;13.40;93.90
43338;DHT22;28933;52.492;13.434;2023-10-09T00:18:06;13.50;94.10
43338;DHT22;28933;52.492;13.434;2023-10-09T00:20:52;13.40;94.20
43338;DHT22;28933;52.492;13.434;2023-10-09T00:23:40;13.40;94.40
43338;DHT22;28933;52.492;13.434;2023-10-09T00:26:27;13.40;94.60
43338;DHT22;28933;52.492;13.434;2023-10-09T00:29:15;13.40;94.80
43338;DHT22;28933;52.492;13.434;2023-10-09T00:32:07;13.40;95.00
43338;DHT22;28933;52.492;13.434;2023-10-09T00:35:01;13.40;95.30
43338;DHT22;28933;52.492;13.434;2023-10-09T00:38:07;13.40;95.50
43338;DHT22;28933;52.492;13.434;2023-10-09T00:41:19;13.40;95.10
43338;DHT22;28933;52.492;13.434;2023-10-09T00:44:06;13.30;95.50
43338;DHT22;28933;52.492;13.434;2023-10-09T00:46:53;13.30;95.90
43338;DHT22;28933;52.492;13.434;2023-10-09T00:49:39;13.30;96.10
43338;DHT22;28933;52.492;13.434;2023-10-09T00:52:30;13.30;96.30
43338;DHT22;28933;52.492;13.434;2023-10-09T00:55:32;13.20;96.50
43338;DHT22;28933;52.492;13.434;2023-10-09T00:58:24;13.20;96.70
43338;DHT22;28933;52.492;13.434;2023-10-09T01:01:16;13.20;96.80
43338;DHT22;28933;52.492;13.434;2023-10-09T01:04:03;13.20;96.90
43338;DHT22;28933;52.492;13.434;2023-10-09T01:06:56;13.20;97.10
43338;DHT22;28933;52.492;13.434;2023-10-09T01:10:00;13.10;97.30
43338;DHT22;28933;52.492;13.434;2023-10-09T01:12:55;13.10;97.30
43338;DHT22;28933;52.492;13.434;2023-10-09T01:15:41;13.10;97.50
43338;DHT22;28933;52.492;13.434;2023-10-09T01:18:29;13.00;97.70
43338;DHT22;28933;52.492;13.434;2023-10-09T01:21:21;13.00;98.00
43338;DHT22;28933;52.492;13.434;2023-10-09T01:24:10;13.00;98.10
43338;DHT22;28933;52.492;13.434;2023-10-09T01:26:56;13.00;98.30
43338;DHT22;28933;52.492;13.434;2023-10-09T01:29:44;13.00;98.60
43338;DHT22;28933;52.492;13.434;2023-10-09T01:32:31;12.90;98.70
43338;DHT22;28933;52.492;13.434;2023-10-09T01:35:20;12.90;98.60
43338;DHT22;28933;52.492;13.434;2023-10-09T01:38:07;12.90;98.70
43338;DHT22;28933;52.492;13.434;2023-10-09T01:40:59;12.80;98.90
43338;DHT22;28933;52.492;13.434;2023-10-09T01:43:54;12.80;99.10
43338;DHT22;28933;52.492;13.434;2023-10-09T01:46:46;12.80;99.40
43338;DHT22;28933;52.492;13.434;2023-10-09T01:49:34;12.80;99.30
43338;DHT22;28933;52.492;13.434;2023-10-09T01:52:21;12.80;99.40
43338;DHT22;28933;52.492;13.434;2023-10-09T01:55:07;12.70;99.50
43338;DHT22;28933;52.492;13.434;2023-10-09T01:57:58;12.70;99.60
43338;DHT22;28933;52.492;13.434;2023-10-09T02:00:48;12.70;99.70
43338;DHT22;28933;52.492;13.434;2023-10-09T02:03:47;12.70;99.90
43338;DHT22;28933;52.492;13.434;2023-10-09T02:06:37;12.70;99.90
43338;DHT22;28933;52.492;13.434;2023-10-09T02:09:23;12.70;99.90
43338;DHT22;28933;52.492;13.434;2023-10-09T02:12:16;12.70;99.90
43338;DHT22;28933;52.492;13.434;2023-10-09T02:15:03;12.70;99.90
43338;DHT22;28933;52.492;13.434;2023-10-09T02:18:01;12.70;99.90
43338;DHT22;28933;52.492;13.434;2023-10-09T02:23:58;12.70;99.90
43338;DHT22;28933;52.492;13.434;2023-10-09T02:26:48;12.70;99.90
43338;DHT22;28933;52.492;13.434;2023-10-09T02:29:37;12.70;99.90
43338;DHT22;28933;52.492;13.434;2023-10-09T02:32:24;12.70;99.90
43338;DHT22;28933;52.492;13.434;2023-10-09T02:35:14;12.70;99.90
43338;DHT22;28933;52.492;13.434;2023-10-09T02:38:18;12.70;99.90
43338;DHT22;28933;52.492;13.434;2023-10-09T02:41:09;12.70;99.90
43338;DHT22;28933;52.492;13.434;2023-10-09T02:43:58;12.70;99.90
43338;DHT22;28933;52.492;13.434;2023-10-09T02:46:56;12.70;99.90
43338;DHT22;28933;52.492;13.434;2023-10-09T02:49:44;12.70;99.90
43338;DHT22;28933;52.492;13.434;2023-10-09T02:52:31;12.70;99.90
43338;DHT22;28933;52.492;13.434;2023-10-09T02:55:26;12.70;99.90
43338;DHT22;28933;52.492;13.434;2023-10-09T02:58:13;12.70;99.90
43338;DHT22;28933;52.492;13.434;2023-10-09T03:01:12;12.70;99.90
43338;DHT22;28933;52.492;13.434;2023-10-09T03:04:02;12.80;99.90
43338;DHT22;28933;52.492;13.434;2023-10-09T03:06:48;12.70;99.90
43338;DHT22;28933;52.492;13.434;2023-10-09T03:09:37;12.70;99.90
43338;DHT22;28933;52.492;13.434;2023-10-09T03:12:23;12.70;99.90
43338;DHT22;28933;52.492;13.434;2023-10-09T03:15:13;12.70;99.90
43338;DHT22;28933;52.492;13.434;2023-10-09T03:17:59;12.70;99.90
43338;DHT22;28933;52.492;13.434;2023-10-09T03:20:45;12.70;99.90
43338;DHT22;28933;52.492;13.434;2023-10-09T03:23:32;12.70;99.90
43338;DHT22;28933;52.492;13.434;2023-10-09T03:26:19;12.70;99.90
43338;DHT22;28933;52.492;13.434;2023-10-09T03:29:06;12.60;99.90
43338;DHT22;28933;52.492;13.434;2023-10-09T03:31:55;12.70;99.90
43338;DHT22;28933;52.492;13.434;2023-10-09T03:34:42;12.70;99.90
43338;DHT22;28933;52.492;13.434;2023-10-09T03:37:29;12.70;99.90
43338;DHT22;28933;52.492;13.434;2023-10-09T03:40:21;12.60;99.90
43338;DHT22;28933;52.492;13.434;2023-10-09T03:43:08;12.70;99.90
43338;DHT22;28933;52.492;13.434;2023-10-09T03:45:56;12.60;99.90
43338;DHT22;28933;52.492;13.434;2023-10-09T03:48:43;12.60;99.90
43338;DHT22;28933;52.492;13.434;2023-10-09T03:51:32;12.60;99.90
43338;DHT22;28933;52.492;13.434;2023-10-09T03:54:19;12.60;99.90
43338;DHT22;28933;52.492;13.434;2023-10-09T03:57:08;12.60;99.90
43338;DHT22;28933;52.492;13.434;2023-10-09T03:59:54;12.60;99.90
43338;DHT22;28933;52.492;13.434;2023-10-09T04:02:41;12.60;99.90
43338;DHT22;28933;52.492;13.434;2023-10-09T04:05:27;12.60;99.90
43338;DHT22;28933;52.492;13.434;2023-10-09T04:08:14;12.60;99.90
43338;DHT22;28933;52.492;13.434;2023-10-09T04:11:06;12.60;99.90
43338;DHT22;28933;52.492;13.434;2023-10-09T04:14:01;12.50;99.90
43338;DHT22;28933;52.492;13.434;2023-10-09T04:16:55;12.50;99.90
43338;DHT22;28933;52.492;13.434;2023-10-09T04:20:05;12.40;99.90
43338;DHT22;28933;52.492;13.434;2023-10-09T04:23:20;12.30;99.90
43338;DHT22;28933;52.492;13.434;2023-10-09T04:26:20;12.30;99.90
43338;DHT22;28933;52.492;13.434;2023-10-09T04:29:06;12.30;99.90
43338;DHT22;28933;52.492;13.434;2023-10-09T04:31:57;12.30;99.90
43338;DHT22;28933;52.492;13.434;2023-10-09T04:34:46;12.30;99.90
43338;DHT22;28933;52.492;13.434;2023-10-09T04:37:35;12.30;99.90
43338;DHT22;28933;52.492;13.434;2023-10-09T04:40:24;12.30;99.90
43338;DHT22;28933;52.492;13.434;2023-10-09T04:43:29;12.40;99.90
43338;DHT22;28933;52.492;13.434;2023-10-09T04:46:15;12.40;99.90
43338;DHT22;28933;52.492;13.434;2023-10-09T04:49:09;12.40;99.90
43338;DHT22;28933;52.492;13.434;2023-10-09T04:52:13;12.40;99.90
43338;DHT22;28933;52.492;13.434;2023-10-09T04:55:11;12.40;99.90
43338;DHT22;28933;52.492;13.434;2023-10-09T04:57:57;12.40;99.90
43338;DHT22;28933;52.492;13.434;2023-10-09T05:00:55;12.40;99.90
43338;DHT22;28933;52.492;13.434;2023-10-09T05:03:44;12.30;99.90
43338;DHT22;28933;52.492;13.434;2023-10-09T05:06:30;12.30;99.90
43338;DHT22;28933;52.492;13.434;2023-10-09T05:09:28;12.30;99.90
43338;DHT22;28933;52.492;13.434;2023-10-09T05:12:34;12.30;99.90
43338;DHT22;28933;52.492;13.434;2023-10-09T05:15:19;12.30;99.90
43338;DHT22;28933;52.492;13.434;2023-10-09T05:18:12;12.30;99.90
43338;DHT22;28933;52.492;13.434;2023-10-09T05:21:02;12.30;99.90
43338;DHT22;28933;52.492;13.434;2023-10-09T05:24:07;12.30;99.90
43338;DHT22;28933;52.492;13.434;2023-10-09T05:26:59;12.30;99.90
43338;DHT22;28933;52.492;13.434;2023-10-09T05:30:06;12.30;99.90
43338;DHT22;28933;52.492;13.434;2023-10-09T05:33:09;12.30;99.90
43338;DHT22;28933;52.492;13.434;2023-10-09T05:36:13;12.30;99.90
43338;DHT22;28933;52.492;13.434;2023-10-09T05:39:20;12.30;99.90
43338;DHT22;28933;52.492;13.434;2023-10-09T05:45:28;12.30;99.90
43338;DHT22;28933;52.492;13.434;2023-10-09T05:48:32;12.20;99.90
43338;DHT22;28933;52.492;13.434;2023-10-09T05:51:24;12.20;99.90
43338;DHT22;28933;52.492;13.434;2023-10-09T05:54:28;12.20;99.90
43338;DHT22;28933;52.492;13.434;2023-10-09T05:57:33;12.20;99.90
43338;DHT22;28933;52.492;13.434;2023-10-09T06:00:37;12.20;99.90
43338;DHT22;28933;52.492;13.434;2023-10-09T06:03:41;12.20;99.90
43338;DHT22;28933;52.492;13.434;2023-10-09T06:06:46;12.20;99.90
43338;DHT22;28933;52.492;13.434;2023-10-09T06:09:41;12.20;99.90
43338;DHT22;28933;52.492;13.434;2023-10-09T06:12:38;12.20;99.90
43338;DHT22;28933;52.492;13.434;2023-10-09T06:15:36;12.20;99.90
43338;DHT22;28933;52.492;13.434;2023-10-09T06:18:52;12.10;99.90
43338;DHT22;28933;52.492;13.434;2023-10-09T06:21:57;12.10;99.90
43338;DHT22;28933;52.492;13.434;2023-10-09T06:24:49;12.10;99.90
43338;DHT22;28933;52.492;13.434;2023-10-09T06:27:38;12.10;99.90
43338;DHT22;28933;52.492;13.434;2023-10-09T06:30:27;12.20;99.90
43338;DHT22;28933;52.492;13.434;2023-10-09T06:33:14;12.20;99.90
43338;DHT22;28933;52.492;13.434;2023-10-09T06:36:15;12.30;99.90
43338;DHT22;28933;52.492;13.434;2023-10-09T06:39:03;12.30;99.90
43338;DHT22;28933;52.492;13.434;2023-10-09T06:42:08;12.40;99.90
43338;DHT22;28933;52.492;13.434;2023-10-09T06:45:16;12.40;99.90
43338;DHT22;28933;52.492;13.434;2023-10-09T06:48:02;12.50;99.90
43338;DHT22;28933;52.492;13.434;2023-10-09T06:51:15;12.60;99.90
43338;DHT22;28933;52.492;13.434;2023-10-09T06:54:12;12.60;99.90
43338;DHT22;28933;52.492;13.434;2023-10-09T06:57:01;12.60;99.90
43338;DHT22;28933;52.492;13.434;2023-10-09T06:59:58;12.60;99.90
43338;DHT22;28933;52.492;13.434;2023-10-09T07:03:03;12.70;99.90
43338;DHT22;28933;52.492;13.434;2023-10-09T07:06:07;12.70;99.90
43338;DHT22;28933;52.492;13.434;2023-10-09T07:09:09;12.70;99.90
43338;DHT22;28933;52.492;13.434;2023-10-09T07:11:55;12.80;99.90
43338;DHT22;28933;52.492;13.434;2023-10-09T07:14:45;12.90;99.90
43338;DHT22;28933;52.492;13.434;2023-10-09T07:17:31;12.90;99.90
43338;DHT22;28933;52.492;13.434;2023-10-09T07:20:19;13.00;99.90
43338;DHT22;28933;52.492;13.434;2023-10-09T07:23:24;13.00;99.90
43338;DHT22;28933;52.492;13.434;2023-10-09T07:26:14;13.10;99.90
43338;DHT22;28933;52.492;13.434;2023-10-09T07:29:09;13.10;99.90
43338;DHT22;28933;52.492;13.434;2023-10-09T07:32:07;13.10;99.90
43338;DHT22;28933;52.492;13.434;2023-10-09T07:34:58;13.20;99.90
43338;DHT22;28933;52.492;13.434;2023-10-09T07:37:45;13.20;99.90
43338;DHT22;28933;52.492;13.434;2023-10-09T07:40:39;13.20;99.90
43338;DHT22;28933;52.492;13.434;2023-10-09T07:43:44;13.20;99.90
43338;DHT22;28933;52.492;13.434;2023-10-09T07:46:30;13.20;99.90
43338;DHT22;28933;52.492;13.434;2023-10-09T07:49:18;13.20;99.90
43338;DHT22;28933;52.492;13.434;2023-10-09T07:52:11;13.30;99.90
43338;DHT22;28933;52.492;13.434;2023-10-09T07:54:58;13.30;99.90
43338;DHT22;28933;52.492;13.434;2023-10-09T07:57:53;13.40;99.90
43338;DHT22;28933;52.492;13.434;2023-10-09T08:00:39;13.40;99.90
43338;DHT22;28933;52.492;13.434;2023-10-09T08:03:49;13.40;99.90
43338;DHT22;28933;52.492;13.434;2023-10-09T08:06:47;13.30;99.90
43338;DHT22;28933;52.492;13.434;2023-10-09T08:09:34;13.40;99.90
43338;DHT22;28933;52.492;13.434;2023-10-09T08:12:51;13.40;99.90
43338;DHT22;28933;52.492;13.434;2023-10-09T08:15:37;13.40;99.90
43338;DHT22;28933;52.492;13.434;2023-10-09T08:18:38;13.40;99.90
43338;DHT22;28933;52.492;13.434;2023-10-09T08:21:30;13.40;99.90
43338;DHT22;28933;52.492;13.434;2023-10-09T08:24:30;13.40;99.90
43338;DHT22;28933;52.492;13.434;2023-10-09T08:27:41;13.40;99.90
43338;DHT22;28933;52.492;13.434;2023-10-09T08:30:40;13.50;99.90
43338;DHT22;28933;52.492;13.434;2023-10-09T08:33:35;13.50;99.90
43338;DHT22;28933;52.492;13.434;2023-10-09T08:36:29;13.40;99.90
43338;DHT22;28933;52.492;13.434;2023-10-09T08:39:21;13.40;99.90
43338;DHT22;28933;52.492;13.434;2023-10-09T08:42:11;13.40;99.90
43338;DHT22;28933;52.492;13.434;2023-10-09T08:44:57;13.50;99.90
43338;DHT22;28933;52.492;13.434;2023-10-09T08:47:46;13.50;99.90
43338;DHT22;28933;52.492;13.434;2023-10-09T08:50:35;13.50;99.90
43338;DHT22;28933;52.492;13.434;2023-10-09T08:53:23;13.50;99.90
43338;DHT22;28933;52.492;13.434;2023-10-09T08:56:17;13.50;99.90
43338;DHT22;28933;52.492;13.434;2023-10-09T08:59:12;13.40;99.90
43338;DHT22;28933;52.492;13.434;2023-10-09T09:01:58;13.40;99.90
43338;DHT22;28933;52.492;13.434;2023-10-09T09:04:45;13.40;99.90
43338;DHT22;28933;52.492;13.434;2023-10-09T09:07:36;13.30;99.90
43338;DHT22;28933;52.492;13.434;2023-10-09T09:10:31;13.30;99.90
43338;DHT22;28933;52.492;13.434;2023-10-09T09:13:20;13.30;99.90
43338;DHT22;28933;52.492;13.434;2023-10-09T09:16:23;13.30;99.90
43338;DHT22;28933;52.492;13.434;2023-10-09T09:19:15;13.30;99.90
43338;DHT22;28933;52.492;13.434;2023-10-09T09:22:05;13.40;99.90
43338;DHT22;28933;52.492;13.434;2023-10-09T09:24:59;13.40;99.90
43338;DHT22;28933;52.492;13.434;2023-10-09T09:27:56;13.50;99.90
43338;DHT22;28933;52.492;13.434;2023-10-09T09:30:43;13.60;99.90
43338;DHT22;28933;52.492;13.434;2023-10-09T09:33:29;13.60;99.90
43338;DHT22;28933;52.492;13.434;2023-10-09T09:36:28;13.70;99.90
43338;DHT22;28933;52.492;13.434;2023-10-09T09:39:27;13.80;99.90
43338;DHT22;28933;52.492;13.434;2023-10-09T09:42:14;13.80;99.90
43338;DHT22;28933;52.492;13.434;2023-10-09T09:45:01;13.80;99.90
43338;DHT22;28933;52.492;13.434;2023-10-09T09:47:52;13.80;99.90
43338;DHT22;28933;52.492;13.434;2023-10-09T09:50:40;13.80;99.90
43338;DHT22;28933;52.492;13.434;2023-10-09T09:53:31;13.80;99.90
43338;DHT22;28933;52.492;13.434;2023-10-09T09:56:23;13.80;99.90
43338;DHT22;28933;52.492;13.434;2023-10-09T09:59:10;13.80;99.90
43338;DHT22;28933;52.492;13.434;2023-10-09T10:02:10;13.70;99.90
43338;DHT22;28933;52.492;13.434;2023-10-09T10:05:05;13.70;99.90
43338;DHT22;28933;52.492;13.434;2023-10-09T10:07:52;13.70;99.90
43338;DHT22;28933;52.492;13.434;2023-10-09T10:10:41;13.70;99.90
43338;DHT22;28933;52.492;13.434;2023-10-09T10:16:29;13.80;99.90
43338;DHT22;28933;52.492;13.434;2023-10-09T10:19:20;13.70;99.90
43338;DHT22;28933;52.492;13.434;2023-10-09T10:22:28;13.80;99.90
43338;DHT22;28933;52.492;13.434;2023-10-09T10:28:22;13.80;99.90
43338;DHT22;28933;52.492;13.434;2023-10-09T10:32:02;13.80;99.90
43338;DHT22;28933;52.492;13.434;2023-10-09T10:34:54;13.80;99.90
43338;DHT22;28933;52.492;13.434;2023-10-09T10:37:43;13.80;99.90
43338;DHT22;28933;52.492;13.434;2023-10-09T10:40:46;13.80;99.90
43338;DHT22;28933;52.492;13.434;2023-10-09T10:43:32;13.90;99.90
43338;DHT22;28933;52.492;13.434;2023-10-09T10:46:23;13.90;99.90
43338;DHT22;28933;52.492;13.434;2023-10-09T10:49:10;14.00;99.90
43338;DHT22;28933;52.492;13.434;2023-10-09T10:51:58;14.10;99.90
43338;DHT22;28933;52.492;13.434;2023-10-09T10:54:47;14.20;99.90
43338;DHT22;28933;52.492;13.434;2023-10-09T10:57:50;14.30;99.90
43338;DHT22;28933;52.492;13.434;2023-10-09T11:00:51;14.30;99.90
43338;DHT22;28933;52.492;13.434;2023-10-09T11:03:42;14.30;99.90
43338;DHT22;28933;52.492;13.434;2023-10-09T11:06:51;14.30;99.90
43338;DHT22;28933;52.492;13.434;2023-10-09T11:12:51;14.20;99.90
43338;DHT22;28933;52.492;13.434;2023-10-09T11:15:38;14.20;99.90
43338;DHT22;28933;52.492;13.434;2023-10-09T11:18:40;14.30;99.90
43338;DHT22;28933;52.492;13.434;2023-10-09T11:21:28;14.30;99.90
43338;DHT22;28933;52.492;13.434;2023-10-09T11:24:17;14.40;99.90
43338;DHT22;28933;52.492;13.434;2023-10-09T11:27:13;14.50;99.90
43338;DHT22;28933;52.492;13.434;2023-10-09T11:30:05;14.50;99.90
43338;DHT22;28933;52.492;13.434;2023-10-09T11:33:05;14.60;99.90
43338;DHT22;28933;52.492;13.434;2023-10-09T11:35:56;14.70;99.90
43338;DHT22;28933;52.492;13.434;2023-10-09T11:38:43;14.90;99.90
43338;DHT22;28933;52.492;13.434;2023-10-09T11:41:39;14.80;99.90
43338;DHT22;28933;52.492;13.434;2023-10-09T11:44:37;14.90;99.90
43338;DHT22;28933;52.492;13.434;2023-10-09T11:47:34;14.80;99.90
43338;DHT22;28933;52.492;13.434;2023-10-09T11:50:20;14.90;99.90
43338;DHT22;28933;52.492;13.434;2023-10-09T11:53:17;15.00;99.90
43338;DHT22;28933;52.492;13.434;2023-10-09T11:56:09;15.20;99.90
43338;DHT22;28933;52.492;13.434;2023-10-09T11:58:59;15.40;99.90
43338;DHT22;28933;52.492;13.434;2023-10-09T12:01:50;15.50;99.90
43338;DHT22;28933;52.492;13.434;2023-10-09T12:04:41;15.60;99.90
43338;DHT22;28933;52.492;13.434;2023-10-09T12:07:27;15.70;99.90
43338;DHT22;28933;52.492;13.434;2023-10-09T12:10:13;15.80;99.90
43338;DHT22;28933;52.492;13.434;2023-10-09T12:13:10;15.90;99.90
43338;DHT22;28933;52.492;13.434;2023-10-09T12:15:56;16.00;99.90
43338;DHT22;28933;52.492;13.434;2023-10-09T12:18:43;16.00;99.90
43338;DHT22;28933;52.492;13.434;2023-10-09T12:21:38;16.00;99.90
43338;DHT22;28933;52.492;13.434;2023-10-09T12:24:28;16.00;99.90
43338;DHT22;28933;52.492;13.434;2023-10-09T12:27:14;15.90;99.90
43338;DHT22;28933;52.492;13.434;2023-10-09T12:30:06;15.90;99.90
43338;DHT22;28933;52.492;13.434;2023-10-09T12:33:01;15.80;99.90
43338;DHT22;28933;52.492;13.434;2023-10-09T12:35:48;15.80;99.90
43338;DHT22;28933;52.492;13.434;2023-10-09T12:38:34;15.80;99.90
43338;DHT22;28933;52.492;13.434;2023-10-09T12:41:20;15.70;99.90
43338;DHT22;28933;52.492;13.434;2023-10-09T12:44:12;15.70;99.90
43338;DHT22;28933;52.492;13.434;2023-10-09T12:47:00;15.70;99.90
43338;DHT22;28933;52.492;13.434;2023-10-09T12:49:50;15.60;99.90
43338;DHT22;28933;52.492;13.434;2023-10-09T12:52:40;15.60;99.90
43338;DHT22;28933;52.492;13.434;2023-10-09T12:55:26;15.60;99.90
43338;DHT22;28933;52.492;13.434;2023-10-09T12:58:17;15.50;99.90
43338;DHT22;28933;52.492;13.434;2023-10-09T13:01:04;15.50;99.90
43338;DHT22;28933;52.492;13.434;2023-10-09T13:03:58;15.40;99.90
43338;DHT22;28933;52.492;13.434;2023-10-09T13:06:46;15.30;99.90
43338;DHT22;28933;52.492;13.434;2023-10-09T13:09:32;15.30;99.90
43338;DHT22;28933;52.492;13.434;2023-10-09T13:12:23;15.20;99.90
43338;DHT22;28933;52.492;13.434;2023-10-09T13:15:09;15.20;99.90
43338;DHT22;28933;52.492;13.434;2023-10-09T13:17:55;15.10;99.90
43338;DHT22;28933;52.492;13.434;2023-10-09T13:20:41;15.20;99.90
43338;DHT22;28933;52.492;13.434;2023-10-09T13:23:27;15.10;99.90
43338;DHT22;28933;52.492;13.434;2023-10-09T13:26:24;15.10;99.90
43338;DHT22;28933;52.492;13.434;2023-10-09T13:29:13;15.10;99.90
43338;DHT22;28933;52.492;13.434;2023-10-09T13:31:59;15.10;99.90
43338;DHT22;28933;52.492;13.434;2023-10-09T13:34:48;15.10;99.90
43338;DHT22;28933;52.492;13.434;2023-10-09T13:37:35;15.10;99.90
43338;DHT22;28933;52.492;13.434;2023-10-09T13:40:23;15.00;99.90
43338;DHT22;28933;52.492;13.434;2023-10-09T13:43:15;15.00;99.90
43338;DHT22;28933;52.492;13.434;2023-10-09T13:46:02;15.00;99.90
43338;DHT22;28933;52.492;13.434;2023-10-09T13:48:49;15.00;99.90
43338;DHT22;28933;52.492;13.434;2023-10-09T13:51:39;15.00;99.90
43338;DHT22;28933;52.492;13.434;2023-10-09T13:54:29;15.00;99.90
43338;DHT22;28933;52.492;13.434;2023-10-09T13:57:18;14.90;99.90
43338;DHT22;28933;52.492;13.434;2023-10-09T14:00:08;14.90;99.90
43338;DHT22;28933;52.492;13.434;2023-10-09T14:02:56;14.90;99.90
43338;DHT22;28933;52.492;13.434;2023-10-09T14:05:46;14.90;99.90
43338;DHT22;28933;52.492;13.434;2023-10-09T14:08:40;14.90;99.90
43338;DHT22;28933;52.492;13.434;2023-10-09T14:11:27;14.90;99.90
43338;DHT22;28933;52.492;13.434;2023-10-09T14:14:13;14.80;99.90
43338;DHT22;28933;52.492;13.434;2023-10-09T14:17:01;14.80;99.90
43338;DHT22;28933;52.492;13.434;2023-10-09T14:19:47;14.80;99.90
43338;DHT22;28933;52.492;13.434;2023-10-09T14:22:33;14.80;99.90
43338;DHT22;28933;52.492;13.434;2023-10-09T14:25:24;14.80;99.90
43338;DHT22;28933;52.492;13.434;2023-10-09T14:28:10;14.80;99.90
43338;DHT22;28933;52.492;13.434;2023-10-09T14:30:56;14.80;99.90
43338;DHT22;28933;52.492;13.434;2023-10-09T14:33:45;14.80;99.90
43338;DHT22;28933;52.492;13.434;2023-10-09T14:36:37;14.80;99.90
43338;DHT22;28933;52.492;13.434;2023-10-09T14:39:29;14.80;99.90
43338;DHT22;28933;52.492;13.434;2023-10-09T14:42:16;14.80;99.90
43338;DHT22;28933;52.492;13.434;2023-10-09T14:45:02;14.80;99.90
43338;DHT22;28933;52.492;13.434;2023-10-09T14:47:54;14.80;99.90
43338;DHT22;28933;52.492;13.434;2023-10-09T14:50:48;14.80;99.90
43338;DHT22;28933;52.492;13.434;2023-10-09T14:53:35;14.80;99.90
43338;DHT22;28933;52.492;13.434;2023-10-09T14:56:21;14.80;99.90
43338;DHT22;28933;52.492;13.434;2023-10-09T14:59:14;14.80;99.90
43338;DHT22;28933;52.492;13.434;2023-10-09T15:02:01;14.80;99.90
43338;DHT22;28933;52.492;13.434;2023-10-09T15:04:47;14.70;99.90
43338;DHT22;28933;52.492;13.434;2023-10-09T15:07:33;14.70;99.90
43338;DHT22;28933;52.492;13.434;2023-10-09T15:10:19;14.70;99.90
43338;DHT22;28933;52.492;13.434;2023-10-09T15:13:06;14.70;99.90
43338;DHT22;28933;52.492;13.434;2023-10-09T15:15:52;14.70;99.90
43338;DHT22;28933;52.492;13.434;2023-10-09T15:18:40;14.70;99.90
43338;DHT22;28933;52.492;13.434;2023-10-09T15:21:25;14.60;99.90
43338;DHT22;28933;52.492;13.434;2023-10-09T15:24:18;14.60;99.90
43338;DHT22;28933;52.492;13.434;2023-10-09T15:27:06;14.60;99.90
43338;DHT22;28933;52.492;13.434;2023-10-09T15:29:55;14.50;99.90
43338;DHT22;28933;52.492;13.434;2023-10-09T15:32:41;14.50;99.90
43338;DHT22;28933;52.492;13.434;2023-10-09T15:35:28;14.50;99.90
43338;DHT22;28933;52.492;13.434;2023-10-09T15:38:19;14.50;99.90
43338;DHT22;28933;52.492;13.434;2023-10-09T15:41:05;14.50;99.90
43338;DHT22;28933;52.492;13.434;2023-10-09T15:43:51;14.40;99.90
43338;DHT22;28933;52.492;13.434;2023-10-09T15:46:37;14.40;99.90
43338;DHT22;28933;52.492;13.434;2023-10-09T15:49:23;14.40;99.90
43338;DHT22;28933;52.492;13.434;2023-10-09T15:52:10;14.40;99.90
43338;DHT22;28933;52.492;13.434;2023-10-09T15:54:59;14.40;99.90
43338;DHT22;28933;52.492;13.434;2023-10-09T15:57:47;14.40;99.90
43338;DHT22;28933;52.492;13.434;2023-10-09T16:00:38;14.30;99.90
43338;DHT22;28933;52.492;13.434;2023-10-09T16:03:25;14.30;99.90
43338;DHT22;28933;52.492;13.434;2023-10-09T16:06:13;14.30;99.90
43338;DHT22;28933;52.492;13.434;2023-10-09T16:09:01;14.30;99.90
43338;DHT22;28933;52.492;13.434;2023-10-09T16:11:48;14.30;99.90
43338;DHT22;28933;52.492;13.434;2023-10-09T16:14:36;14.30;99.90
43338;DHT22;28933;52.492;13.434;2023-10-09T16:17:21;14.30;99.90
43338;DHT22;28933;52.492;13.434;2023-10-09T16:20:11;14.20;99.90
43338;DHT22;28933;52.492;13.434;2023-10-09T16:23:11;14.20;99.90
43338;DHT22;28933;52.492;13.434;2023-10-09T16:25:58;14.20;99.90
43338;DHT22;28933;52.492;13.434;2023-10-09T16:28:46;14.10;99.90
43338;DHT22;28933;52.492;13.434;2023-10-09T16:31:34;14.20;99.90
43338;DHT22;28933;52.492;13.434;2023-10-09T16:34:21;14.10;99.90
43338;DHT22;28933;52.492;13.434;2023-10-09T16:37:11;14.10;99.90
43338;DHT22;28933;52.492;13.434;2023-10-09T16:39:59;14.10;99.90
43338;DHT22;28933;52.492;13.434;2023-10-09T16:42:51;14.10;99.90
43338;DHT22;28933;52.492;13.434;2023-10-09T16:45:40;14.10;99.90
43338;DHT22;28933;52.492;13.434;2023-10-09T16:48:29;14.10;99.90
43338;DHT22;28933;52.492;13.434;2023-10-09T16:51:15;14.10;99.90
43338;DHT22;28933;52.492;13.434;2023-10-09T16:54:03;14.10;99.90
43338;DHT22;28933;52.492;13.434;2023-10-09T16:56:50;14.10;99.90
43338;DHT22;28933;52.492;13.434;2023-10-09T16:59:42;14.10;99.90
43338;DHT22;28933;52.492;13.434;2023-10-09T17:02:30;14.00;99.90
43338;DHT22;28933;52.492;13.434;2023-10-09T17:05:16;14.00;99.90
43338;DHT22;28933;52.492;13.434;2023-10-09T17:08:13;14.00;99.90
43338;DHT22;28933;52.492;13.434;2023-10-09T17:10:59;14.00;99.90
43338;DHT22;28933;52.492;13.434;2023-10-09T17:13:45;14.00;99.90
43338;DHT22;28933;52.492;13.434;2023-10-09T17:16:34;14.10;99.90
43338;DHT22;28933;52.492;13.434;2023-10-09T17:19:20;14.00;99.90
43338;DHT22;28933;52.492;13.434;2023-10-09T17:22:06;14.00;99.90
43338;DHT22;28933;52.492;13.434;2023-10-09T17:24:56;14.00;99.90
43338;DHT22;28933;52.492;13.434;2023-10-09T17:27:43;13.90;99.90
43338;DHT22;28933;52.492;13.434;2023-10-09T17:30:29;13.90;99.90
43338;DHT22;28933;52.492;13.434;2023-10-09T17:33:21;13.90;99.90
43338;DHT22;28933;52.492;13.434;2023-10-09T17:36:08;13.90;99.90
43338;DHT22;28933;52.492;13.434;2023-10-09T17:38:57;13.90;99.90
43338;DHT22;28933;52.492;13.434;2023-10-09T17:41:46;13.80;99.90
43338;DHT22;28933;52.492;13.434;2023-10-09T17:44:31;13.80;99.90
43338;DHT22;28933;52.492;13.434;2023-10-09T17:47:17;13.80;99.90
43338;DHT22;28933;52.492;13.434;2023-10-09T17:50:07;13.80;99.90
43338;DHT22;28933;52.492;13.434;2023-10-09T17:52:56;13.70;99.90
43338;DHT22;28933;52.492;13.434;2023-10-09T17:55:45;13.70;99.90
43338;DHT22;28933;52.492;13.434;2023-10-09T17:58:33;13.70;99.90
43338;DHT22;28933;52.492;13.434;2023-10-09T18:01:19;13.70;99.90